sensor_id;sensor_type;location;lat;lon;timestamp;temperature;humidity
41904;DHT22;27586;51.124;4.182;2023-11-18T00:00:01;7.10;99.90
41904;DHT22;27586;51.124;4.182;2023-11-18T00:02:26;7.10;99.90
41904;DHT22;27586;51.124;4.182;2023-11-18T00:04:52;7.20;99.90
41904;DHT22;27586;51.124;4.182;2023-11-18T00:07:18;7.20;99.90
41904;DHT22;27586;51.124;4.182;2023-11-18T00:09:44;7.20;99.90
41904;DHT22;27586;51.124;4.182;2023-11-18T00:12:12;7.20;99.90
41904;DHT22;27586;51.124;4.182;2023-11-18T00:14:37;7.20;99.90
41904;DHT22;27586;51.124;4.182;2023-11-18T00:17:03;7.30;99.90
41904;DHT22;27586;51.124;4.182;2023-11-18T00:19:30;7.20;99.90
41904;DHT22;27586;51.124;4.182;2023-11-18T00:21:55;7.20;99.90
41904;DHT22;27586;51.124;4.182;2023-11-18T00:24:21;7.20;99.90
41904;DHT22;27586;51.124;4.182;2023-11-18T00:26:47;7.20;99.90
41904;DHT22;27586;51.124;4.182;2023-11-18T00:29:12;7.10;99.90
41904;DHT22;27586;51.124;4.182;2023-11-18T00:31:38;7.10;99.90
41904;DHT22;27586;51.124;4.182;2023-11-18T00:34:04;7.10;99.90
41904;DHT22;27586;51.124;4.182;2023-11-18T00:36:29;7.20;99.90
41904;DHT22;27586;51.124;4.182;2023-11-18T00:38:55;7.10;99.90
41904;DHT22;27586;51.124;4.182;2023-11-18T00:41:21;7.10;99.90
41904;DHT22;27586;51.124;4.182;2023-11-18T00:43:47;7.10;99.90
41904;DHT22;27586;51.124;4.182;2023-11-18T00:46:12;7.10;99.90
41904;DHT22;27586;51.124;4.182;2023-11-18T00:48:38;7.10;99.90
41904;DHT22;27586;51.124;4.182;2023-11-18T00:51:06;7.10;99.90
41904;DHT22;27586;51.124;4.182;2023-11-18T00:53:31;7.20;99.90
41904;DHT22;27586;51.124;4.182;2023-11-18T00:55:57;7.20;99.90
41904;DHT22;27586;51.124;4.182;2023-11-18T00:58:22;7.20;99.90
41904;DHT22;27586;51.124;4.182;2023-11-18T01:00:48;7.20;99.90
41904;DHT22;27586;51.124;4.182;2023-11-18T01:03:14;7.20;99.90
41904;DHT22;27586;51.124;4.182;2023-11-18T01:05:39;7.20;99.90
41904;DHT22;27586;51.124;4.182;2023-11-18T01:08:06;7.10;99.90
41904;DHT22;27586;51.124;4.182;2023-11-18T01:10:32;7.10;99.90
41904;DHT22;27586;51.124;4.182;2023-11-18T01:12:57;7.20;99.90
41904;DHT22;27586;51.124;4.182;2023-11-18T01:15:23;7.20;99.90
41904;DHT22;27586;51.124;4.182;2023-11-18T01:17:49;7.20;99.90
41904;DHT22;27586;51.124;4.182;2023-11-18T01:20:15;7.20;99.90
41904;DHT22;27586;51.124;4.182;2023-11-18T01:22:46;7.20;99.90
41904;DHT22;27586;51.124;4.182;2023-11-18T01:25:14;7.20;99.90
41904;DHT22;27586;51.124;4.182;2023-11-18T01:27:43;7.30;99.90
41904;DHT22;27586;51.124;4.182;2023-11-18T01:30:12;7.30;99.90
41904;DHT22;27586;51.124;4.182;2023-11-18T01:32:38;7.30;99.90
41904;DHT22;27586;51.124;4.182;2023-11-18T01:35:05;7.30;99.90
41904;DHT22;27586;51.124;4.182;2023-11-18T01:37:31;7.30;99.90
41904;DHT22;27586;51.124;4.182;2023-11-18T01:39:57;7.30;99.90
41904;DHT22;27586;51.124;4.182;2023-11-18T01:42:23;7.30;99.90
41904;DHT22;27586;51.124;4.182;2023-11-18T01:44:48;7.30;99.90
41904;DHT22;27586;51.124;4.182;2023-11-18T01:47:14;7.40;99.90
41904;DHT22;27586;51.124;4.182;2023-11-18T01:49:40;7.40;99.90
41904;DHT22;27586;51.124;4.182;2023-11-18T01:52:10;7.40;99.90
41904;DHT22;27586;51.124;4.182;2023-11-18T01:54:38;7.30;99.90
41904;DHT22;27586;51.124;4.182;2023-11-18T01:57:05;7.30;99.90
41904;DHT22;27586;51.124;4.182;2023-11-18T01:59:34;7.30;99.90
41904;DHT22;27586;51.124;4.182;2023-11-18T02:02:01;7.30;99.90
41904;DHT22;27586;51.124;4.182;2023-11-18T02:04:27;7.30;99.90
41904;DHT22;27586;51.124;4.182;2023-11-18T02:06:53;7.30;99.90
41904;DHT22;27586;51.124;4.182;2023-11-18T02:09:20;7.20;99.90
41904;DHT22;27586;51.124;4.182;2023-11-18T02:14:26;7.30;99.90
41904;DHT22;27586;51.124;4.182;2023-11-18T02:16:56;7.30;99.90
41904;DHT22;27586;51.124;4.182;2023-11-18T02:19:25;7.30;99.90
41904;DHT22;27586;51.124;4.182;2023-11-18T02:21:52;7.30;99.90
41904;DHT22;27586;51.124;4.182;2023-11-18T02:24:29;7.30;99.90
41904;DHT22;27586;51.124;4.182;2023-11-18T02:27:00;7.30;99.90
41904;DHT22;27586;51.124;4.182;2023-11-18T02:29:29;7.30;99.90
41904;DHT22;27586;51.124;4.182;2023-11-18T02:32:09;7.30;99.90
41904;DHT22;27586;51.124;4.182;2023-11-18T02:34:39;7.30;99.90
41904;DHT22;27586;51.124;4.182;2023-11-18T02:37:06;7.30;99.90
41904;DHT22;27586;51.124;4.182;2023-11-18T02:39:39;7.30;99.90
41904;DHT22;27586;51.124;4.182;2023-11-18T02:42:07;7.30;99.90
41904;DHT22;27586;51.124;4.182;2023-11-18T02:44:36;7.30;99.90
41904;DHT22;27586;51.124;4.182;2023-11-18T02:47:02;7.30;99.90
41904;DHT22;27586;51.124;4.182;2023-11-18T02:49:30;7.30;99.90
41904;DHT22;27586;51.124;4.182;2023-11-18T02:51:56;7.30;99.90
41904;DHT22;27586;51.124;4.182;2023-11-18T02:54:22;7.30;99.90
41904;DHT22;27586;51.124;4.182;2023-11-18T02:56:48;7.30;99.90
41904;DHT22;27586;51.124;4.182;2023-11-18T02:59:15;7.30;99.90
41904;DHT22;27586;51.124;4.182;2023-11-18T03:01:41;7.30;99.90
41904;DHT22;27586;51.124;4.182;2023-11-18T03:04:07;7.30;99.90
41904;DHT22;27586;51.124;4.182;2023-11-18T03:06:34;7.20;99.90
41904;DHT22;27586;51.124;4.182;2023-11-18T03:09:01;7.20;99.90
41904;DHT22;27586;51.124;4.182;2023-11-18T03:11:26;7.10;99.90
41904;DHT22;27586;51.124;4.182;2023-11-18T03:13:55;7.10;99.90
41904;DHT22;27586;51.124;4.182;2023-11-18T03:16:25;7.10;99.90
41904;DHT22;27586;51.124;4.182;2023-11-18T03:18:51;7.10;99.90
41904;DHT22;27586;51.124;4.182;2023-11-18T03:21:17;7.20;99.90
41904;DHT22;27586;51.124;4.182;2023-11-18T03:23:45;7.20;99.90
41904;DHT22;27586;51.124;4.182;2023-11-18T03:26:10;7.20;99.90
41904;DHT22;27586;51.124;4.182;2023-11-18T03:28:37;7.10;99.90
41904;DHT22;27586;51.124;4.182;2023-11-18T03:31:06;7.10;99.90
41904;DHT22;27586;51.124;4.182;2023-11-18T03:33:32;7.20;99.90
41904;DHT22;27586;51.124;4.182;2023-11-18T03:35:58;7.20;99.90
41904;DHT22;27586;51.124;4.182;2023-11-18T03:38:24;7.20;99.90
41904;DHT22;27586;51.124;4.182;2023-11-18T03:40:50;7.20;99.90
41904;DHT22;27586;51.124;4.182;2023-11-18T03:43:18;7.30;99.90
41904;DHT22;27586;51.124;4.182;2023-11-18T03:45:43;7.30;99.90
41904;DHT22;27586;51.124;4.182;2023-11-18T03:48:09;7.30;99.90
41904;DHT22;27586;51.124;4.182;2023-11-18T03:50:39;7.30;99.90
41904;DHT22;27586;51.124;4.182;2023-11-18T03:53:05;7.40;99.90
41904;DHT22;27586;51.124;4.182;2023-11-18T03:55:31;7.40;99.90
41904;DHT22;27586;51.124;4.182;2023-11-18T03:57:57;7.40;99.90
41904;DHT22;27586;51.124;4.182;2023-11-18T04:00:23;7.40;99.90
41904;DHT22;27586;51.124;4.182;2023-11-18T04:02:58;7.40;99.90
41904;DHT22;27586;51.124;4.182;2023-11-18T04:05:24;7.50;99.90
41904;DHT22;27586;51.124;4.182;2023-11-18T04:07:50;7.50;99.90
41904;DHT22;27586;51.124;4.182;2023-11-18T04:10:17;7.50;99.90
41904;DHT22;27586;51.124;4.182;2023-11-18T04:12:44;7.50;99.90
41904;DHT22;27586;51.124;4.182;2023-11-18T04:15:12;7.50;99.90
41904;DHT22;27586;51.124;4.182;2023-11-18T04:17:38;7.50;99.90
41904;DHT22;27586;51.124;4.182;2023-11-18T04:20:04;7.50;99.90
41904;DHT22;27586;51.124;4.182;2023-11-18T04:22:40;7.50;99.90
41904;DHT22;27586;51.124;4.182;2023-11-18T04:25:10;7.50;99.90
41904;DHT22;27586;51.124;4.182;2023-11-18T04:27:39;7.50;99.90
41904;DHT22;27586;51.124;4.182;2023-11-18T04:30:05;7.60;99.90
41904;DHT22;27586;51.124;4.182;2023-11-18T04:32:31;7.50;99.90
41904;DHT22;27586;51.124;4.182;2023-11-18T04:35:00;7.60;99.90
41904;DHT22;27586;51.124;4.182;2023-11-18T04:37:35;7.60;99.90
41904;DHT22;27586;51.124;4.182;2023-11-18T04:40:01;7.60;99.90
41904;DHT22;27586;51.124;4.182;2023-11-18T04:42:27;7.60;99.90
41904;DHT22;27586;51.124;4.182;2023-11-18T04:44:55;7.60;99.90
41904;DHT22;27586;51.124;4.182;2023-11-18T04:47:21;7.60;99.90
41904;DHT22;27586;51.124;4.182;2023-11-18T04:49:47;7.60;99.90
41904;DHT22;27586;51.124;4.182;2023-11-18T04:52:12;7.70;99.90
41904;DHT22;27586;51.124;4.182;2023-11-18T04:54:38;7.60;99.90
41904;DHT22;27586;51.124;4.182;2023-11-18T04:57:04;7.60;99.90
41904;DHT22;27586;51.124;4.182;2023-11-18T04:59:29;7.70;99.90
41904;DHT22;27586;51.124;4.182;2023-11-18T05:01:56;7.70;99.90
41904;DHT22;27586;51.124;4.182;2023-11-18T05:04:22;7.70;99.90
41904;DHT22;27586;51.124;4.182;2023-11-18T05:06:47;7.70;99.90
41904;DHT22;27586;51.124;4.182;2023-11-18T05:09:14;7.70;99.90
41904;DHT22;27586;51.124;4.182;2023-11-18T05:11:43;7.70;99.90
41904;DHT22;27586;51.124;4.182;2023-11-18T05:14:10;7.70;99.90
41904;DHT22;27586;51.124;4.182;2023-11-18T05:16:36;7.80;99.90
41904;DHT22;27586;51.124;4.182;2023-11-18T05:19:02;7.80;99.90
41904;DHT22;27586;51.124;4.182;2023-11-18T05:21:28;7.90;99.90
41904;DHT22;27586;51.124;4.182;2023-11-18T05:23:54;7.80;99.90
41904;DHT22;27586;51.124;4.182;2023-11-18T05:26:20;7.90;99.90
41904;DHT22;27586;51.124;4.182;2023-11-18T05:28:46;7.90;99.90
41904;DHT22;27586;51.124;4.182;2023-11-18T05:31:11;7.90;99.90
41904;DHT22;27586;51.124;4.182;2023-11-18T05:33:37;7.90;99.90
41904;DHT22;27586;51.124;4.182;2023-11-18T05:36:03;7.90;99.90
41904;DHT22;27586;51.124;4.182;2023-11-18T05:38:30;7.90;99.90
41904;DHT22;27586;51.124;4.182;2023-11-18T05:41:00;7.90;99.90
41904;DHT22;27586;51.124;4.182;2023-11-18T05:43:30;7.90;99.90
41904;DHT22;27586;51.124;4.182;2023-11-18T05:46:03;7.90;99.90
41904;DHT22;27586;51.124;4.182;2023-11-18T05:48:48;8.00;99.90
41904;DHT22;27586;51.124;4.182;2023-11-18T05:51:19;7.90;99.90
41904;DHT22;27586;51.124;4.182;2023-11-18T05:53:45;8.00;99.90
41904;DHT22;27586;51.124;4.182;2023-11-18T05:56:14;8.00;99.90
41904;DHT22;27586;51.124;4.182;2023-11-18T05:58:42;7.90;99.90
41904;DHT22;27586;51.124;4.182;2023-11-18T06:01:11;8.00;99.90
41904;DHT22;27586;51.124;4.182;2023-11-18T06:03:38;8.00;99.90
41904;DHT22;27586;51.124;4.182;2023-11-18T06:06:07;8.00;99.90
41904;DHT22;27586;51.124;4.182;2023-11-18T06:08:37;8.10;99.90
41904;DHT22;27586;51.124;4.182;2023-11-18T06:11:10;8.10;99.90
41904;DHT22;27586;51.124;4.182;2023-11-18T06:13:49;8.00;99.90
41904;DHT22;27586;51.124;4.182;2023-11-18T06:16:21;8.10;99.90
41904;DHT22;27586;51.124;4.182;2023-11-18T06:18:49;8.00;99.90
41904;DHT22;27586;51.124;4.182;2023-11-18T06:21:16;8.00;99.90
41904;DHT22;27586;51.124;4.182;2023-11-18T06:23:44;8.00;99.90
41904;DHT22;27586;51.124;4.182;2023-11-18T06:26:11;8.00;99.90
41904;DHT22;27586;51.124;4.182;2023-11-18T06:28:41;8.00;99.90
41904;DHT22;27586;51.124;4.182;2023-11-18T06:31:07;8.10;99.90
41904;DHT22;27586;51.124;4.182;2023-11-18T06:33:45;8.10;99.90
41904;DHT22;27586;51.124;4.182;2023-11-18T06:38:39;8.10;99.90
41904;DHT22;27586;51.124;4.182;2023-11-18T06:41:09;8.10;99.90
41904;DHT22;27586;51.124;4.182;2023-11-18T06:43:40;8.20;99.90
41904;DHT22;27586;51.124;4.182;2023-11-18T06:46:23;8.10;99.90
41904;DHT22;27586;51.124;4.182;2023-11-18T06:48:51;8.20;99.90
41904;DHT22;27586;51.124;4.182;2023-11-18T06:51:23;8.20;99.90
41904;DHT22;27586;51.124;4.182;2023-11-18T06:53:53;8.30;99.90
41904;DHT22;27586;51.124;4.182;2023-11-18T06:56:22;8.30;99.90
41904;DHT22;27586;51.124;4.182;2023-11-18T06:58:47;8.30;99.90
41904;DHT22;27586;51.124;4.182;2023-11-18T07:01:14;8.30;99.90
41904;DHT22;27586;51.124;4.182;2023-11-18T07:03:41;8.30;99.90
41904;DHT22;27586;51.124;4.182;2023-11-18T07:06:07;8.30;99.90
41904;DHT22;27586;51.124;4.182;2023-11-18T07:08:37;8.30;99.90
41904;DHT22;27586;51.124;4.182;2023-11-18T07:11:05;8.30;99.90
41904;DHT22;27586;51.124;4.182;2023-11-18T07:13:34;8.20;99.90
41904;DHT22;27586;51.124;4.182;2023-11-18T07:16:00;8.30;99.90
41904;DHT22;27586;51.124;4.182;2023-11-18T07:18:29;8.30;99.90
41904;DHT22;27586;51.124;4.182;2023-11-18T07:21:01;8.40;99.90
41904;DHT22;27586;51.124;4.182;2023-11-18T07:23:28;8.30;99.90
41904;DHT22;27586;51.124;4.182;2023-11-18T07:25:54;8.40;99.90
41904;DHT22;27586;51.124;4.182;2023-11-18T07:28:21;8.30;99.90
41904;DHT22;27586;51.124;4.182;2023-11-18T07:30:47;8.40;99.90
41904;DHT22;27586;51.124;4.182;2023-11-18T07:33:16;8.40;99.90
41904;DHT22;27586;51.124;4.182;2023-11-18T07:35:46;8.50;99.90
41904;DHT22;27586;51.124;4.182;2023-11-18T07:38:14;8.40;99.90
41904;DHT22;27586;51.124;4.182;2023-11-18T07:40:39;8.40;99.90
41904;DHT22;27586;51.124;4.182;2023-11-18T07:43:11;8.50;99.90
41904;DHT22;27586;51.124;4.182;2023-11-18T07:45:38;8.60;99.90
41904;DHT22;27586;51.124;4.182;2023-11-18T07:48:08;8.60;99.90
41904;DHT22;27586;51.124;4.182;2023-11-18T07:50:38;8.50;99.90
41904;DHT22;27586;51.124;4.182;2023-11-18T07:53:06;8.50;99.90
41904;DHT22;27586;51.124;4.182;2023-11-18T07:55:33;8.60;99.90
41904;DHT22;27586;51.124;4.182;2023-11-18T07:58:05;8.70;99.90
41904;DHT22;27586;51.124;4.182;2023-11-18T08:00:39;8.60;99.90
41904;DHT22;27586;51.124;4.182;2023-11-18T08:03:11;8.70;99.90
41904;DHT22;27586;51.124;4.182;2023-11-18T08:05:44;8.60;99.90
41904;DHT22;27586;51.124;4.182;2023-11-18T08:08:13;8.70;99.90
41904;DHT22;27586;51.124;4.182;2023-11-18T08:10:42;8.70;99.90
41904;DHT22;27586;51.124;4.182;2023-11-18T08:13:10;8.60;99.90
41904;DHT22;27586;51.124;4.182;2023-11-18T08:15:40;8.70;99.90
41904;DHT22;27586;51.124;4.182;2023-11-18T08:18:07;8.70;99.90
41904;DHT22;27586;51.124;4.182;2023-11-18T08:20:33;8.70;99.90
41904;DHT22;27586;51.124;4.182;2023-11-18T08:22:59;8.70;99.90
41904;DHT22;27586;51.124;4.182;2023-11-18T08:25:25;8.70;99.90
41904;DHT22;27586;51.124;4.182;2023-11-18T08:27:51;8.70;99.90
41904;DHT22;27586;51.124;4.182;2023-11-18T08:30:17;8.70;99.90
41904;DHT22;27586;51.124;4.182;2023-11-18T08:32:44;8.80;99.90
41904;DHT22;27586;51.124;4.182;2023-11-18T08:35:14;8.80;99.90
41904;DHT22;27586;51.124;4.182;2023-11-18T08:37:40;8.80;99.90
41904;DHT22;27586;51.124;4.182;2023-11-18T08:40:08;8.80;99.90
41904;DHT22;27586;51.124;4.182;2023-11-18T08:42:44;8.90;99.90
41904;DHT22;27586;51.124;4.182;2023-11-18T08:45:16;8.90;99.90
41904;DHT22;27586;51.124;4.182;2023-11-18T08:47:45;9.00;99.90
41904;DHT22;27586;51.124;4.182;2023-11-18T08:50:15;9.00;99.90
41904;DHT22;27586;51.124;4.182;2023-11-18T08:52:45;9.00;99.90
41904;DHT22;27586;51.124;4.182;2023-11-18T08:55:15;9.00;99.90
41904;DHT22;27586;51.124;4.182;2023-11-18T08:57:49;9.00;99.90
41904;DHT22;27586;51.124;4.182;2023-11-18T09:00:38;9.00;99.90
41904;DHT22;27586;51.124;4.182;2023-11-18T09:03:30;9.10;99.90
41904;DHT22;27586;51.124;4.182;2023-11-18T09:06:08;9.00;99.90
41904;DHT22;27586;51.124;4.182;2023-11-18T09:08:45;9.00;99.90
41904;DHT22;27586;51.124;4.182;2023-11-18T09:11:15;9.00;99.90
41904;DHT22;27586;51.124;4.182;2023-11-18T09:13:48;9.10;99.90
41904;DHT22;27586;51.124;4.182;2023-11-18T09:16:15;9.20;99.90
41904;DHT22;27586;51.124;4.182;2023-11-18T09:18:43;9.20;99.90
41904;DHT22;27586;51.124;4.182;2023-11-18T09:21:12;9.20;99.90
41904;DHT22;27586;51.124;4.182;2023-11-18T09:23:41;9.30;99.90
41904;DHT22;27586;51.124;4.182;2023-11-18T09:26:08;9.30;99.90
41904;DHT22;27586;51.124;4.182;2023-11-18T09:28:36;9.30;99.90
41904;DHT22;27586;51.124;4.182;2023-11-18T09:31:03;9.20;99.90
41904;DHT22;27586;51.124;4.182;2023-11-18T09:33:30;9.20;99.90
41904;DHT22;27586;51.124;4.182;2023-11-18T09:36:03;9.20;99.90
41904;DHT22;27586;51.124;4.182;2023-11-18T09:38:34;9.30;99.90
41904;DHT22;27586;51.124;4.182;2023-11-18T09:41:02;9.20;99.90
41904;DHT22;27586;51.124;4.182;2023-11-18T09:43:38;9.30;99.90
41904;DHT22;27586;51.124;4.182;2023-11-18T09:46:26;9.30;99.90
41904;DHT22;27586;51.124;4.182;2023-11-18T09:49:03;9.40;99.90
41904;DHT22;27586;51.124;4.182;2023-11-18T09:51:41;9.40;99.90
41904;DHT22;27586;51.124;4.182;2023-11-18T09:54:30;9.40;99.90
41904;DHT22;27586;51.124;4.182;2023-11-18T09:57:32;9.30;99.90
41904;DHT22;27586;51.124;4.182;2023-11-18T10:00:08;9.40;99.90
41904;DHT22;27586;51.124;4.182;2023-11-18T10:02:47;9.40;99.90
41904;DHT22;27586;51.124;4.182;2023-11-18T10:05:13;9.40;99.90
41904;DHT22;27586;51.124;4.182;2023-11-18T10:07:44;9.50;99.90
41904;DHT22;27586;51.124;4.182;2023-11-18T10:10:12;9.40;99.90
41904;DHT22;27586;51.124;4.182;2023-11-18T10:12:45;9.30;99.90
41904;DHT22;27586;51.124;4.182;2023-11-18T10:15:13;9.50;99.90
41904;DHT22;27586;51.124;4.182;2023-11-18T10:17:42;9.40;99.90
41904;DHT22;27586;51.124;4.182;2023-11-18T10:20:50;9.30;99.90
41904;DHT22;27586;51.124;4.182;2023-11-18T10:23:22;9.40;99.90
41904;DHT22;27586;51.124;4.182;2023-11-18T10:28:28;9.50;99.90
41904;DHT22;27586;51.124;4.182;2023-11-18T10:30:59;9.40;99.90
41904;DHT22;27586;51.124;4.182;2023-11-18T10:33:33;9.40;99.90
41904;DHT22;27586;51.124;4.182;2023-11-18T10:36:01;9.40;99.90
41904;DHT22;27586;51.124;4.182;2023-11-18T10:38:31;9.40;99.90
41904;DHT22;27586;51.124;4.182;2023-11-18T10:40:59;9.40;99.90
41904;DHT22;27586;51.124;4.182;2023-11-18T10:43:27;9.50;99.90
41904;DHT22;27586;51.124;4.182;2023-11-18T10:46:09;9.50;99.90
41904;DHT22;27586;51.124;4.182;2023-11-18T10:48:47;9.50;99.90
41904;DHT22;27586;51.124;4.182;2023-11-18T10:51:14;9.50;99.90
41904;DHT22;27586;51.124;4.182;2023-11-18T10:53:42;9.40;99.90
41904;DHT22;27586;51.124;4.182;2023-11-18T10:56:21;9.30;99.90
41904;DHT22;27586;51.124;4.182;2023-11-18T10:58:53;9.30;99.90
41904;DHT22;27586;51.124;4.182;2023-11-18T11:01:30;9.40;99.90
41904;DHT22;27586;51.124;4.182;2023-11-18T11:04:00;9.30;99.90
41904;DHT22;27586;51.124;4.182;2023-11-18T11:06:30;9.40;99.90
41904;DHT22;27586;51.124;4.182;2023-11-18T11:08:57;9.40;99.90
41904;DHT22;27586;51.124;4.182;2023-11-18T11:11:40;9.40;99.90
41904;DHT22;27586;51.124;4.182;2023-11-18T11:14:12;9.50;99.90
41904;DHT22;27586;51.124;4.182;2023-11-18T11:16:45;9.50;99.90
41904;DHT22;27586;51.124;4.182;2023-11-18T11:19:34;9.50;99.90
41904;DHT22;27586;51.124;4.182;2023-11-18T11:22:10;9.40;99.90
41904;DHT22;27586;51.124;4.182;2023-11-18T11:27:25;9.40;99.90
41904;DHT22;27586;51.124;4.182;2023-11-18T11:30:14;9.40;99.90
41904;DHT22;27586;51.124;4.182;2023-11-18T11:33:13;9.40;99.90
41904;DHT22;27586;51.124;4.182;2023-11-18T11:35:43;9.60;99.90
41904;DHT22;27586;51.124;4.182;2023-11-18T11:38:12;9.70;99.90
41904;DHT22;27586;51.124;4.182;2023-11-18T11:40:41;9.60;99.90
41904;DHT22;27586;51.124;4.182;2023-11-18T11:43:09;9.70;99.90
41904;DHT22;27586;51.124;4.182;2023-11-18T11:45:36;9.80;99.90
41904;DHT22;27586;51.124;4.182;2023-11-18T11:48:06;9.70;99.90
41904;DHT22;27586;51.124;4.182;2023-11-18T11:53:22;9.90;99.90
41904;DHT22;27586;51.124;4.182;2023-11-18T11:56:01;9.80;99.90
41904;DHT22;27586;51.124;4.182;2023-11-18T11:58:39;9.80;99.90
41904;DHT22;27586;51.124;4.182;2023-11-18T12:01:28;9.80;99.90
41904;DHT22;27586;51.124;4.182;2023-11-18T12:04:03;9.80;99.90
41904;DHT22;27586;51.124;4.182;2023-11-18T12:06:33;9.80;99.90
41904;DHT22;27586;51.124;4.182;2023-11-18T12:09:02;9.90;99.90
41904;DHT22;27586;51.124;4.182;2023-11-18T12:11:37;9.80;99.90
41904;DHT22;27586;51.124;4.182;2023-11-18T12:14:11;9.70;99.90
41904;DHT22;27586;51.124;4.182;2023-11-18T12:19:37;9.80;99.90
41904;DHT22;27586;51.124;4.182;2023-11-18T12:24:45;9.80;99.90
41904;DHT22;27586;51.124;4.182;2023-11-18T12:27:12;9.70;99.90
41904;DHT22;27586;51.124;4.182;2023-11-18T12:29:44;9.60;99.90
41904;DHT22;27586;51.124;4.182;2023-11-18T12:32:10;9.60;99.90
41904;DHT22;27586;51.124;4.182;2023-11-18T12:34:55;9.60;99.90
41904;DHT22;27586;51.124;4.182;2023-11-18T12:37:51;9.60;99.90
41904;DHT22;27586;51.124;4.182;2023-11-18T12:41:03;9.60;99.90
41904;DHT22;27586;51.124;4.182;2023-11-18T12:44:02;9.70;99.90
41904;DHT22;27586;51.124;4.182;2023-11-18T12:49:03;9.80;99.90
41904;DHT22;27586;51.124;4.182;2023-11-18T12:51:31;9.80;99.90
41904;DHT22;27586;51.124;4.182;2023-11-18T12:54:01;9.70;99.90
41904;DHT22;27586;51.124;4.182;2023-11-18T12:56:28;9.70;99.90
41904;DHT22;27586;51.124;4.182;2023-11-18T12:58:55;9.70;99.90
41904;DHT22;27586;51.124;4.182;2023-11-18T13:01:22;9.70;99.90
41904;DHT22;27586;51.124;4.182;2023-11-18T13:03:48;9.80;99.90
41904;DHT22;27586;51.124;4.182;2023-11-18T13:06:14;9.80;99.90
41904;DHT22;27586;51.124;4.182;2023-11-18T13:08:40;9.80;99.90
41904;DHT22;27586;51.124;4.182;2023-11-18T13:11:06;9.80;99.90
41904;DHT22;27586;51.124;4.182;2023-11-18T13:13:41;9.80;99.90
41904;DHT22;27586;51.124;4.182;2023-11-18T13:16:07;9.80;99.90
41904;DHT22;27586;51.124;4.182;2023-11-18T13:18:45;9.80;99.90
41904;DHT22;27586;51.124;4.182;2023-11-18T13:21:19;9.80;99.90
41904;DHT22;27586;51.124;4.182;2023-11-18T13:23:49;9.80;99.90
41904;DHT22;27586;51.124;4.182;2023-11-18T13:26:19;9.80;99.90
41904;DHT22;27586;51.124;4.182;2023-11-18T13:28:46;9.90;99.90
41904;DHT22;27586;51.124;4.182;2023-11-18T13:31:12;9.90;99.90
41904;DHT22;27586;51.124;4.182;2023-11-18T13:33:42;10.00;99.90
41904;DHT22;27586;51.124;4.182;2023-11-18T13:36:09;10.00;99.90
41904;DHT22;27586;51.124;4.182;2023-11-18T13:38:38;10.10;99.90
41904;DHT22;27586;51.124;4.182;2023-11-18T13:41:05;10.00;99.90
41904;DHT22;27586;51.124;4.182;2023-11-18T13:43:46;10.00;99.90
41904;DHT22;27586;51.124;4.182;2023-11-18T13:46:17;10.00;99.90
41904;DHT22;27586;51.124;4.182;2023-11-18T13:48:48;10.00;99.90
41904;DHT22;27586;51.124;4.182;2023-11-18T13:51:16;10.00;99.90
41904;DHT22;27586;51.124;4.182;2023-11-18T13:53:45;10.00;99.90
41904;DHT22;27586;51.124;4.182;2023-11-18T13:56:12;10.00;99.90
41904;DHT22;27586;51.124;4.182;2023-11-18T13:58:38;10.00;99.90
41904;DHT22;27586;51.124;4.182;2023-11-18T14:01:08;10.10;99.90
41904;DHT22;27586;51.124;4.182;2023-11-18T14:03:37;10.10;99.90
41904;DHT22;27586;51.124;4.182;2023-11-18T14:06:08;10.10;99.90
41904;DHT22;27586;51.124;4.182;2023-11-18T14:08:39;10.10;99.90
41904;DHT22;27586;51.124;4.182;2023-11-18T14:11:06;10.10;99.90
41904;DHT22;27586;51.124;4.182;2023-11-18T14:13:34;10.10;99.90
41904;DHT22;27586;51.124;4.182;2023-11-18T14:16:01;10.20;99.90
41904;DHT22;27586;51.124;4.182;2023-11-18T14:18:27;10.30;99.90
41904;DHT22;27586;51.124;4.182;2023-11-18T14:20:53;10.20;99.90
41904;DHT22;27586;51.124;4.182;2023-11-18T14:23:20;10.10;99.90
41904;DHT22;27586;51.124;4.182;2023-11-18T14:25:47;10.20;99.90
41904;DHT22;27586;51.124;4.182;2023-11-18T14:28:12;10.20;99.90
41904;DHT22;27586;51.124;4.182;2023-11-18T14:30:38;10.20;99.90
41904;DHT22;27586;51.124;4.182;2023-11-18T14:33:05;10.40;99.90
41904;DHT22;27586;51.124;4.182;2023-11-18T14:35:32;10.30;99.90
41904;DHT22;27586;51.124;4.182;2023-11-18T14:37:58;10.40;99.90
41904;DHT22;27586;51.124;4.182;2023-11-18T14:40:23;10.30;99.90
41904;DHT22;27586;51.124;4.182;2023-11-18T14:42:49;10.30;99.90
41904;DHT22;27586;51.124;4.182;2023-11-18T14:45:16;10.30;99.90
41904;DHT22;27586;51.124;4.182;2023-11-18T14:47:45;10.40;99.90
41904;DHT22;27586;51.124;4.182;2023-11-18T14:50:13;10.40;99.90
41904;DHT22;27586;51.124;4.182;2023-11-18T14:52:49;10.50;99.90
41904;DHT22;27586;51.124;4.182;2023-11-18T14:55:17;10.40;99.90
41904;DHT22;27586;51.124;4.182;2023-11-18T14:57:44;10.50;99.90
41904;DHT22;27586;51.124;4.182;2023-11-18T15:00:11;10.50;99.90
41904;DHT22;27586;51.124;4.182;2023-11-18T15:02:57;10.40;99.90
41904;DHT22;27586;51.124;4.182;2023-11-18T15:05:23;10.40;99.90
41904;DHT22;27586;51.124;4.182;2023-11-18T15:07:51;10.40;99.90
41904;DHT22;27586;51.124;4.182;2023-11-18T15:10:22;10.50;99.90
41904;DHT22;27586;51.124;4.182;2023-11-18T15:12:55;10.50;99.90
41904;DHT22;27586;51.124;4.182;2023-11-18T15:15:24;10.60;99.90
41904;DHT22;27586;51.124;4.182;2023-11-18T15:18:07;10.50;99.90
41904;DHT22;27586;51.124;4.182;2023-11-18T15:20:35;10.50;99.90
41904;DHT22;27586;51.124;4.182;2023-11-18T15:23:04;10.60;99.90
41904;DHT22;27586;51.124;4.182;2023-11-18T15:25:30;10.60;99.90
41904;DHT22;27586;51.124;4.182;2023-11-18T15:27:56;10.60;99.90
41904;DHT22;27586;51.124;4.182;2023-11-18T15:30:22;10.70;99.90
41904;DHT22;27586;51.124;4.182;2023-11-18T15:32:50;10.70;99.90
41904;DHT22;27586;51.124;4.182;2023-11-18T15:35:17;10.70;99.90
41904;DHT22;27586;51.124;4.182;2023-11-18T15:37:44;10.80;99.90
41904;DHT22;27586;51.124;4.182;2023-11-18T15:40:14;10.70;99.90
41904;DHT22;27586;51.124;4.182;2023-11-18T15:42:41;10.70;99.90
41904;DHT22;27586;51.124;4.182;2023-11-18T15:45:12;10.80;99.90
41904;DHT22;27586;51.124;4.182;2023-11-18T15:47:39;10.90;99.90
41904;DHT22;27586;51.124;4.182;2023-11-18T15:50:10;10.90;99.90
41904;DHT22;27586;51.124;4.182;2023-11-18T15:52:41;10.90;99.90
41904;DHT22;27586;51.124;4.182;2023-11-18T15:55:07;10.90;99.90
41904;DHT22;27586;51.124;4.182;2023-11-18T15:57:37;10.90;99.90
41904;DHT22;27586;51.124;4.182;2023-11-18T16:00:04;10.90;99.90
41904;DHT22;27586;51.124;4.182;2023-11-18T16:02:31;10.90;99.90
41904;DHT22;27586;51.124;4.182;2023-11-18T16:04:57;11.00;99.90
41904;DHT22;27586;51.124;4.182;2023-11-18T16:07:23;11.00;99.90
41904;DHT22;27586;51.124;4.182;2023-11-18T16:09:50;10.90;99.90
41904;DHT22;27586;51.124;4.182;2023-11-18T16:12:16;11.00;99.90
41904;DHT22;27586;51.124;4.182;2023-11-18T16:14:41;11.10;99.90
41904;DHT22;27586;51.124;4.182;2023-11-18T16:17:07;11.10;99.90